Blanford, Indiana
Current Conditions -  °F | °C
As of 4:15 PM on Monday 22 Dec 2014 (Local Time) from KPRG Reporting Station
Moderate Rain Moderate Rain  
Wind Chill: 39°   Ceiling: 4100
Heat Index: 45°   Visibility: 5mi
Dew Point: 44°   Wind: 13mph
Humidity: 95%   Direction: 130°SE
Pressure: 29.69"   Gusts: NA
Location:  39.66°N, 87.52°W
Report Text: KPRG 222115Z AUTO 13011KT 5SM RA SCT019 BKN041 OVC048 07/07 A2969 RMK AO2 T00730066
Loading
Personal Weather Stations






























Interactive Weather Map New forecast layout! Learn more

10-Day Weather Forecast

Advertisements
Track Severe Weather on mobile